sensor_id;sensor_type;location;lat;lon;timestamp;pressure;altitude;pressure_sealevel;temperature;humidity
70009;BME280;59542;37.950;-122.338;2022-11-20T00:00:12;101897.59;;;15.43;27.30
70009;BME280;59542;37.950;-122.338;2022-11-20T00:02:38;101903.44;;;15.33;27.38
70009;BME280;59542;37.950;-122.338;2022-11-20T00:05:05;101903.25;;;15.15;27.75
70009;BME280;59542;37.950;-122.338;2022-11-20T00:07:31;101900.91;;;15.45;27.54
70009;BME280;59542;37.950;-122.338;2022-11-20T00:09:57;101892.03;;;15.31;27.72
70009;BME280;59542;37.950;-122.338;2022-11-20T00:12:24;101900.56;;;15.15;27.60
70009;BME280;59542;37.950;-122.338;2022-11-20T00:14:50;101907.84;;;15.01;27.80
70009;BME280;59542;37.950;-122.338;2022-11-20T00:17:16;101909.28;;;15.03;28.18
70009;BME280;59542;37.950;-122.338;2022-11-20T00:19:42;101915.53;;;14.84;27.93
70009;BME280;59542;37.950;-122.338;2022-11-20T00:22:08;101915.75;;;14.83;27.79
70009;BME280;59542;37.950;-122.338;2022-11-20T00:24:34;101913.25;;;14.94;27.82
70009;BME280;59542;37.950;-122.338;2022-11-20T00:27:00;101918.66;;;14.68;28.06
70009;BME280;59542;37.950;-122.338;2022-11-20T00:29:27;101908.91;;;14.73;27.90
70009;BME280;59542;37.950;-122.338;2022-11-20T00:31:53;101912.22;;;14.69;27.94
70009;BME280;59542;37.950;-122.338;2022-11-20T00:34:19;101902.69;;;14.53;27.83
70009;BME280;59542;37.950;-122.338;2022-11-20T00:36:45;101909.50;;;14.49;28.04
70009;BME280;59542;37.950;-122.338;2022-11-20T00:39:11;101916.28;;;14.25;28.36
70009;BME280;59542;37.950;-122.338;2022-11-20T00:41:37;101911.56;;;14.40;28.22
70009;BME280;59542;37.950;-122.338;2022-11-20T00:44:04;101913.59;;;14.32;27.90
70009;BME280;59542;37.950;-122.338;2022-11-20T00:46:30;101901.78;;;14.26;28.23
70009;BME280;59542;37.950;-122.338;2022-11-20T00:48:56;101909.63;;;14.08;28.07
70009;BME280;59542;37.950;-122.338;2022-11-20T00:51:24;101920.00;;;14.11;28.02
70009;BME280;59542;37.950;-122.338;2022-11-20T00:53:51;101912.97;;;14.16;28.14
70009;BME280;59542;37.950;-122.338;2022-11-20T00:56:18;101907.34;;;14.11;27.65
70009;BME280;59542;37.950;-122.338;2022-11-20T00:58:47;101910.44;;;14.02;27.87
70009;BME280;59542;37.950;-122.338;2022-11-20T01:01:22;101919.34;;;14.02;27.49
70009;BME280;59542;37.950;-122.338;2022-11-20T01:03:55;101918.28;;;13.96;27.29
70009;BME280;59542;37.950;-122.338;2022-11-20T01:06:28;101914.56;;;13.97;27.33
70009;BME280;59542;37.950;-122.338;2022-11-20T01:08:57;101907.31;;;13.98;27.59
70009;BME280;59542;37.950;-122.338;2022-11-20T01:11:26;101920.53;;;13.93;27.40
70009;BME280;59542;37.950;-122.338;2022-11-20T01:13:54;101922.41;;;13.92;27.22
70009;BME280;59542;37.950;-122.338;2022-11-20T01:16:24;101924.13;;;14.07;27.40
70009;BME280;59542;37.950;-122.338;2022-11-20T01:18:53;101923.22;;;13.93;27.12
70009;BME280;59542;37.950;-122.338;2022-11-20T01:21:24;101925.75;;;13.94;27.04
70009;BME280;59542;37.950;-122.338;2022-11-20T01:23:51;101924.25;;;13.92;27.02
70009;BME280;59542;37.950;-122.338;2022-11-20T01:26:20;101924.84;;;13.87;27.32
70009;BME280;59542;37.950;-122.338;2022-11-20T01:28:47;101935.22;;;13.84;27.12
70009;BME280;59542;37.950;-122.338;2022-11-20T01:31:23;101936.66;;;13.86;27.08
70009;BME280;59542;37.950;-122.338;2022-11-20T01:33:52;101941.66;;;13.89;26.81
70009;BME280;59542;37.950;-122.338;2022-11-20T01:36:20;101936.03;;;13.84;27.21
70009;BME280;59542;37.950;-122.338;2022-11-20T01:38:47;101946.38;;;13.81;26.80
70009;BME280;59542;37.950;-122.338;2022-11-20T01:41:15;101949.28;;;13.79;26.72
70009;BME280;59542;37.950;-122.338;2022-11-20T01:44:02;101941.44;;;13.84;26.64
70009;BME280;59542;37.950;-122.338;2022-11-20T01:46:28;101946.44;;;13.94;26.60
70009;BME280;59542;37.950;-122.338;2022-11-20T01:49:02;101946.63;;;13.92;26.33
70009;BME280;59542;37.950;-122.338;2022-11-20T01:51:46;101960.91;;;13.93;26.55
70009;BME280;59542;37.950;-122.338;2022-11-20T01:54:19;101952.81;;;13.86;26.33
70009;BME280;59542;37.950;-122.338;2022-11-20T01:56:48;101952.81;;;13.86;26.32
70009;BME280;59542;37.950;-122.338;2022-11-20T01:59:18;101950.78;;;13.88;26.35
70009;BME280;59542;37.950;-122.338;2022-11-20T02:01:46;101960.88;;;13.86;26.22
70009;BME280;59542;37.950;-122.338;2022-11-20T02:04:13;101964.00;;;13.90;26.36
70009;BME280;59542;37.950;-122.338;2022-11-20T02:06:42;101961.53;;;13.88;26.12
70009;BME280;59542;37.950;-122.338;2022-11-20T02:09:10;101960.06;;;13.86;26.35
70009;BME280;59542;37.950;-122.338;2022-11-20T02:11:37;101960.03;;;13.79;26.44
70009;BME280;59542;37.950;-122.338;2022-11-20T02:14:04;101963.75;;;13.78;26.50
70009;BME280;59542;37.950;-122.338;2022-11-20T02:16:40;101953.03;;;13.85;26.29
70009;BME280;59542;37.950;-122.338;2022-11-20T02:19:17;101956.31;;;13.87;26.35
70009;BME280;59542;37.950;-122.338;2022-11-20T02:21:54;101959.63;;;13.82;26.42
70009;BME280;59542;37.950;-122.338;2022-11-20T02:24:22;101951.09;;;13.72;26.63
70009;BME280;59542;37.950;-122.338;2022-11-20T02:27:04;101956.72;;;13.77;26.30
70009;BME280;59542;37.950;-122.338;2022-11-20T02:29:35;101963.19;;;13.89;25.78
70009;BME280;59542;37.950;-122.338;2022-11-20T02:32:02;101960.06;;;13.86;25.94
70009;BME280;59542;37.950;-122.338;2022-11-20T02:34:29;101964.59;;;13.85;25.95
70009;BME280;59542;37.950;-122.338;2022-11-20T02:36:56;101967.69;;;13.82;26.08
70009;BME280;59542;37.950;-122.338;2022-11-20T02:39:25;101968.09;;;13.79;26.00
70009;BME280;59542;37.950;-122.338;2022-11-20T02:41:56;101962.13;;;13.84;25.93
70009;BME280;59542;37.950;-122.338;2022-11-20T02:44:22;101969.56;;;13.82;25.87
70009;BME280;59542;37.950;-122.338;2022-11-20T02:46:49;101975.00;;;13.88;25.86
70009;BME280;59542;37.950;-122.338;2022-11-20T02:49:15;101973.72;;;13.84;25.32
70009;BME280;59542;37.950;-122.338;2022-11-20T02:51:42;101973.28;;;13.81;25.76
70009;BME280;59542;37.950;-122.338;2022-11-20T02:54:08;101976.78;;;13.81;25.32
70009;BME280;59542;37.950;-122.338;2022-11-20T02:56:34;101978.06;;;13.85;25.64
70009;BME280;59542;37.950;-122.338;2022-11-20T02:59:03;101982.19;;;13.81;25.54
70009;BME280;59542;37.950;-122.338;2022-11-20T03:01:30;101991.91;;;13.82;25.44
70009;BME280;59542;37.950;-122.338;2022-11-20T03:03:56;101988.44;;;13.88;25.06
70009;BME280;59542;37.950;-122.338;2022-11-20T03:06:22;101986.75;;;13.87;25.17
70009;BME280;59542;37.950;-122.338;2022-11-20T03:08:48;101991.13;;;13.88;25.20
70009;BME280;59542;37.950;-122.338;2022-11-20T03:11:15;101992.34;;;13.86;25.14
70009;BME280;59542;37.950;-122.338;2022-11-20T03:13:42;101985.91;;;13.80;25.38
70009;BME280;59542;37.950;-122.338;2022-11-20T03:16:11;101988.25;;;13.96;24.77
70009;BME280;59542;37.950;-122.338;2022-11-20T03:18:38;101984.31;;;13.92;24.91
70009;BME280;59542;37.950;-122.338;2022-11-20T03:21:05;101987.78;;;13.86;25.08
70009;BME280;59542;37.950;-122.338;2022-11-20T03:23:32;101994.66;;;13.89;25.05
70009;BME280;59542;37.950;-122.338;2022-11-20T03:26:17;101992.41;;;13.99;24.83
70009;BME280;59542;37.950;-122.338;2022-11-20T03:28:55;101996.31;;;13.90;24.77
70009;BME280;59542;37.950;-122.338;2022-11-20T03:31:30;101988.00;;;13.85;24.85
70009;BME280;59542;37.950;-122.338;2022-11-20T03:33:57;101995.84;;;13.80;24.81
70009;BME280;59542;37.950;-122.338;2022-11-20T03:36:25;101995.88;;;13.86;25.04
70009;BME280;59542;37.950;-122.338;2022-11-20T03:38:53;101991.53;;;13.85;24.65
70009;BME280;59542;37.950;-122.338;2022-11-20T03:41:25;101998.53;;;13.80;24.84
70009;BME280;59542;37.950;-122.338;2022-11-20T03:43:53;101996.66;;;13.80;24.47
70009;BME280;59542;37.950;-122.338;2022-11-20T03:46:20;101997.75;;;13.92;24.09
70009;BME280;59542;37.950;-122.338;2022-11-20T03:48:47;102009.34;;;13.93;24.27
70009;BME280;59542;37.950;-122.338;2022-11-20T03:51:22;102006.00;;;13.84;24.78
70009;BME280;59542;37.950;-122.338;2022-11-20T03:53:49;102009.13;;;13.88;24.79
70009;BME280;59542;37.950;-122.338;2022-11-20T03:56:18;102013.06;;;13.85;24.83
70009;BME280;59542;37.950;-122.338;2022-11-20T03:58:45;102014.91;;;13.85;24.65
70009;BME280;59542;37.950;-122.338;2022-11-20T04:01:13;102024.63;;;13.79;24.93
70009;BME280;59542;37.950;-122.338;2022-11-20T04:03:41;102028.34;;;13.78;24.63
70009;BME280;59542;37.950;-122.338;2022-11-20T04:08:36;102031.66;;;13.80;24.84
70009;BME280;59542;37.950;-122.338;2022-11-20T04:11:18;102028.97;;;13.80;25.08
70009;BME280;59542;37.950;-122.338;2022-11-20T04:13:53;102031.91;;;13.92;24.67
70009;BME280;59542;37.950;-122.338;2022-11-20T04:16:21;102033.31;;;13.81;25.16
70009;BME280;59542;37.950;-122.338;2022-11-20T04:19:00;102029.94;;;13.66;25.07
70009;BME280;59542;37.950;-122.338;2022-11-20T04:21:27;102035.06;;;13.61;24.81
70009;BME280;59542;37.950;-122.338;2022-11-20T04:23:54;102050.25;;;13.75;25.28
70009;BME280;59542;37.950;-122.338;2022-11-20T04:26:22;102052.00;;;13.89;25.24
70009;BME280;59542;37.950;-122.338;2022-11-20T04:28:49;102051.13;;;13.82;25.25
70009;BME280;59542;37.950;-122.338;2022-11-20T04:31:21;102054.75;;;13.68;25.77
70009;BME280;59542;37.950;-122.338;2022-11-20T04:33:48;102059.34;;;13.74;26.88
70009;BME280;59542;37.950;-122.338;2022-11-20T04:36:17;102057.38;;;13.89;28.40
70009;BME280;59542;37.950;-122.338;2022-11-20T04:38:44;102061.44;;;13.72;28.97
70009;BME280;59542;37.950;-122.338;2022-11-20T04:41:18;102056.34;;;13.56;29.81
70009;BME280;59542;37.950;-122.338;2022-11-20T04:43:53;102063.50;;;13.48;30.52
70009;BME280;59542;37.950;-122.338;2022-11-20T04:46:25;102066.56;;;13.39;30.94
70009;BME280;59542;37.950;-122.338;2022-11-20T04:48:52;102069.44;;;13.16;31.78
70009;BME280;59542;37.950;-122.338;2022-11-20T04:51:19;102073.47;;;13.27;31.77
70009;BME280;59542;37.950;-122.338;2022-11-20T04:53:45;102073.13;;;12.93;32.65
70009;BME280;59542;37.950;-122.338;2022-11-20T04:56:12;102080.69;;;12.83;32.68
70009;BME280;59542;37.950;-122.338;2022-11-20T04:58:39;102087.34;;;12.51;33.82
70009;BME280;59542;37.950;-122.338;2022-11-20T05:01:16;102081.72;;;12.31;34.71
70009;BME280;59542;37.950;-122.338;2022-11-20T05:03:44;102095.06;;;11.95;35.36
70009;BME280;59542;37.950;-122.338;2022-11-20T05:06:12;102099.31;;;12.04;35.32
70009;BME280;59542;37.950;-122.338;2022-11-20T05:08:40;102109.88;;;12.21;35.62
70009;BME280;59542;37.950;-122.338;2022-11-20T05:11:11;102107.28;;;11.60;37.48
70009;BME280;59542;37.950;-122.338;2022-11-20T05:13:38;102112.50;;;11.76;37.19
70009;BME280;59542;37.950;-122.338;2022-11-20T05:16:08;102123.38;;;11.60;37.57
70009;BME280;59542;37.950;-122.338;2022-11-20T05:18:35;102119.69;;;11.76;37.40
70009;BME280;59542;37.950;-122.338;2022-11-20T05:21:01;102124.47;;;11.51;37.93
70009;BME280;59542;37.950;-122.338;2022-11-20T05:23:29;102120.31;;;11.25;38.58
70009;BME280;59542;37.950;-122.338;2022-11-20T05:25:56;102133.81;;;10.86;39.75
70009;BME280;59542;37.950;-122.338;2022-11-20T05:28:24;102128.41;;;10.94;39.53
70009;BME280;59542;37.950;-122.338;2022-11-20T05:30:50;102128.13;;;10.81;40.06
70009;BME280;59542;37.950;-122.338;2022-11-20T05:33:17;102136.00;;;10.82;39.83
70009;BME280;59542;37.950;-122.338;2022-11-20T05:35:43;102124.63;;;10.49;40.41
70009;BME280;59542;37.950;-122.338;2022-11-20T05:38:10;102136.63;;;10.53;40.48
70009;BME280;59542;37.950;-122.338;2022-11-20T05:40:36;102134.94;;;10.61;40.38
70009;BME280;59542;37.950;-122.338;2022-11-20T05:43:03;102128.13;;;10.50;40.71
70009;BME280;59542;37.950;-122.338;2022-11-20T05:45:29;102131.47;;;10.52;40.80
70009;BME280;59542;37.950;-122.338;2022-11-20T05:47:58;102137.06;;;10.26;41.26
70009;BME280;59542;37.950;-122.338;2022-11-20T05:50:27;102132.19;;;10.38;41.44
70009;BME280;59542;37.950;-122.338;2022-11-20T05:52:53;102128.91;;;10.27;41.74
70009;BME280;59542;37.950;-122.338;2022-11-20T05:55:19;102131.38;;;10.21;42.31
70009;BME280;59542;37.950;-122.338;2022-11-20T05:57:46;102141.59;;;10.25;42.95
70009;BME280;59542;37.950;-122.338;2022-11-20T06:00:12;102140.13;;;10.07;44.02
70009;BME280;59542;37.950;-122.338;2022-11-20T06:02:39;102146.63;;;10.04;43.81
70009;BME280;59542;37.950;-122.338;2022-11-20T06:05:05;102151.97;;;10.04;44.63
70009;BME280;59542;37.950;-122.338;2022-11-20T06:07:31;102153.16;;;10.01;45.08
70009;BME280;59542;37.950;-122.338;2022-11-20T06:09:57;102155.38;;;9.90;45.74
70009;BME280;59542;37.950;-122.338;2022-11-20T06:12:24;102155.34;;;9.98;45.66
70009;BME280;59542;37.950;-122.338;2022-11-20T06:14:50;102162.41;;;9.58;46.53
70009;BME280;59542;37.950;-122.338;2022-11-20T06:17:16;102160.38;;;9.28;47.28
70009;BME280;59542;37.950;-122.338;2022-11-20T06:19:43;102169.78;;;8.81;48.18
70009;BME280;59542;37.950;-122.338;2022-11-20T06:22:09;102168.63;;;8.84;48.00
70009;BME280;59542;37.950;-122.338;2022-11-20T06:24:35;102166.31;;;8.89;47.83
70009;BME280;59542;37.950;-122.338;2022-11-20T06:27:01;102170.00;;;8.96;47.37
70009;BME280;59542;37.950;-122.338;2022-11-20T06:29:27;102164.47;;;8.97;47.23
70009;BME280;59542;37.950;-122.338;2022-11-20T06:31:54;102165.03;;;9.17;46.89
70009;BME280;59542;37.950;-122.338;2022-11-20T06:34:20;102171.34;;;9.08;46.69
70009;BME280;59542;37.950;-122.338;2022-11-20T06:36:46;102171.00;;;9.03;46.65
70009;BME280;59542;37.950;-122.338;2022-11-20T06:39:13;102174.53;;;9.12;47.07
70009;BME280;59542;37.950;-122.338;2022-11-20T06:41:39;102165.84;;;9.10;47.46
70009;BME280;59542;37.950;-122.338;2022-11-20T06:44:05;102169.78;;;8.81;48.13
70009;BME280;59542;37.950;-122.338;2022-11-20T06:46:31;102166.75;;;8.76;48.64
70009;BME280;59542;37.950;-122.338;2022-11-20T06:48:58;102165.13;;;8.83;49.30
70009;BME280;59542;37.950;-122.338;2022-11-20T06:51:24;102165.06;;;8.67;49.96
70009;BME280;59542;37.950;-122.338;2022-11-20T06:53:50;102160.56;;;8.76;49.94
70009;BME280;59542;37.950;-122.338;2022-11-20T06:56:16;102176.53;;;8.59;50.58
70009;BME280;59542;37.950;-122.338;2022-11-20T06:58:43;102172.16;;;8.50;50.34
70009;BME280;59542;37.950;-122.338;2022-11-20T07:01:12;102178.69;;;8.56;50.20
70009;BME280;59542;37.950;-122.338;2022-11-20T07:03:39;102182.47;;;8.45;50.46
70009;BME280;59542;37.950;-122.338;2022-11-20T07:06:05;102183.88;;;8.57;50.15
70009;BME280;59542;37.950;-122.338;2022-11-20T07:08:32;102181.88;;;8.59;50.33
70009;BME280;59542;37.950;-122.338;2022-11-20T07:11:00;102187.06;;;8.35;50.67
70009;BME280;59542;37.950;-122.338;2022-11-20T07:13:27;102184.34;;;8.53;49.71
70009;BME280;59542;37.950;-122.338;2022-11-20T07:15:54;102193.47;;;8.42;49.74
70009;BME280;59542;37.950;-122.338;2022-11-20T07:18:21;102186.94;;;8.36;50.19
70009;BME280;59542;37.950;-122.338;2022-11-20T07:20:47;102195.56;;;8.64;49.35
70009;BME280;59542;37.950;-122.338;2022-11-20T07:23:13;102193.66;;;8.49;49.68
70009;BME280;59542;37.950;-122.338;2022-11-20T07:25:39;102187.06;;;8.61;49.29
70009;BME280;59542;37.950;-122.338;2022-11-20T07:28:05;102189.47;;;8.46;49.64
70009;BME280;59542;37.950;-122.338;2022-11-20T07:30:32;102194.19;;;8.52;49.59
70009;BME280;59542;37.950;-122.338;2022-11-20T07:32:58;102192.03;;;8.56;49.52
70009;BME280;59542;37.950;-122.338;2022-11-20T07:35:25;102194.03;;;8.28;50.26
70009;BME280;59542;37.950;-122.338;2022-11-20T07:37:51;102196.06;;;8.34;50.72
70009;BME280;59542;37.950;-122.338;2022-11-20T07:40:18;102197.63;;;8.18;51.17
70009;BME280;59542;37.950;-122.338;2022-11-20T07:42:51;102194.16;;;8.26;50.94
70009;BME280;59542;37.950;-122.338;2022-11-20T07:45:19;102191.03;;;8.31;51.06
70009;BME280;59542;37.950;-122.338;2022-11-20T07:47:46;102187.16;;;8.25;51.39
70009;BME280;59542;37.950;-122.338;2022-11-20T07:50:13;102183.81;;;7.97;51.91
70009;BME280;59542;37.950;-122.338;2022-11-20T07:52:39;102183.81;;;7.97;52.02
70009;BME280;59542;37.950;-122.338;2022-11-20T07:55:07;102180.34;;;8.05;52.05
70009;BME280;59542;37.950;-122.338;2022-11-20T07:57:33;102186.97;;;8.18;51.99
70009;BME280;59542;37.950;-122.338;2022-11-20T07:59:59;102189.16;;;8.23;51.93
70009;BME280;59542;37.950;-122.338;2022-11-20T08:02:25;102181.72;;;7.83;53.14
70009;BME280;59542;37.950;-122.338;2022-11-20T08:04:52;102176.03;;;7.78;53.15
70009;BME280;59542;37.950;-122.338;2022-11-20T08:07:18;102172.56;;;7.85;52.78
70009;BME280;59542;37.950;-122.338;2022-11-20T08:09:44;102179.78;;;7.67;53.52
70009;BME280;59542;37.950;-122.338;2022-11-20T08:12:18;102184.41;;;7.83;53.51
70009;BME280;59542;37.950;-122.338;2022-11-20T08:15:04;102183.31;;;7.76;53.61
70009;BME280;59542;37.950;-122.338;2022-11-20T08:17:31;102185.19;;;7.57;54.48
70009;BME280;59542;37.950;-122.338;2022-11-20T08:19:57;102192.50;;;7.55;54.60
70009;BME280;59542;37.950;-122.338;2022-11-20T08:22:24;102182.97;;;7.53;54.75
70009;BME280;59542;37.950;-122.338;2022-11-20T08:24:50;102185.47;;;7.54;54.54
70009;BME280;59542;37.950;-122.338;2022-11-20T08:27:17;102185.41;;;7.46;54.70
70009;BME280;59542;37.950;-122.338;2022-11-20T08:29:43;102188.69;;;7.40;54.73
70009;BME280;59542;37.950;-122.338;2022-11-20T08:32:09;102194.28;;;7.55;54.80
70009;BME280;59542;37.950;-122.338;2022-11-20T08:34:35;102190.25;;;7.68;54.63
70009;BME280;59542;37.950;-122.338;2022-11-20T08:37:02;102185.03;;;7.41;55.49
70009;BME280;59542;37.950;-122.338;2022-11-20T08:39:28;102187.91;;;7.48;55.59
70009;BME280;59542;37.950;-122.338;2022-11-20T08:41:54;102181.97;;;7.36;55.83
70009;BME280;59542;37.950;-122.338;2022-11-20T08:44:21;102177.25;;;7.30;56.11
70009;BME280;59542;37.950;-122.338;2022-11-20T08:46:47;102173.16;;;7.18;56.86
70009;BME280;59542;37.950;-122.338;2022-11-20T08:49:14;102169.88;;;7.24;56.70
70009;BME280;59542;37.950;-122.338;2022-11-20T08:51:41;102167.50;;;7.21;56.96
70009;BME280;59542;37.950;-122.338;2022-11-20T08:54:08;102175.25;;;6.96;57.69
70009;BME280;59542;37.950;-122.338;2022-11-20T08:56:34;102168.25;;;6.95;58.03
70009;BME280;59542;37.950;-122.338;2022-11-20T08:59:00;102170.91;;;6.95;58.20
70009;BME280;59542;37.950;-122.338;2022-11-20T09:01:28;102180.22;;;6.81;58.63
70009;BME280;59542;37.950;-122.338;2022-11-20T09:03:57;102169.63;;;6.72;59.05
70009;BME280;59542;37.950;-122.338;2022-11-20T09:06:25;102166.44;;;6.68;59.08
70009;BME280;59542;37.950;-122.338;2022-11-20T09:08:52;102170.41;;;6.82;58.66
70009;BME280;59542;37.950;-122.338;2022-11-20T09:11:19;102168.69;;;6.91;58.47
70009;BME280;59542;37.950;-122.338;2022-11-20T09:13:45;102171.66;;;6.87;58.31
70009;BME280;59542;37.950;-122.338;2022-11-20T09:16:11;102175.16;;;6.88;58.15
70009;BME280;59542;37.950;-122.338;2022-11-20T09:18:37;102170.53;;;6.90;57.74
70009;BME280;59542;37.950;-122.338;2022-11-20T09:21:11;102173.19;;;6.90;57.67
70009;BME280;59542;37.950;-122.338;2022-11-20T09:23:38;102178.31;;;7.01;57.37
70009;BME280;59542;37.950;-122.338;2022-11-20T09:26:06;102169.53;;;6.91;57.60
70009;BME280;59542;37.950;-122.338;2022-11-20T09:28:32;102166.66;;;7.02;57.40
70009;BME280;59542;37.950;-122.338;2022-11-20T09:30:59;102178.81;;;7.05;57.24
70009;BME280;59542;37.950;-122.338;2022-11-20T09:33:26;102174.81;;;7.01;57.65
70009;BME280;59542;37.950;-122.338;2022-11-20T09:35:52;102179.13;;;7.02;57.58
70009;BME280;59542;37.950;-122.338;2022-11-20T09:38:18;102180.56;;;6.96;57.90
70009;BME280;59542;37.950;-122.338;2022-11-20T09:40:50;102187.50;;;6.89;58.32
70009;BME280;59542;37.950;-122.338;2022-11-20T09:43:50;102183.19;;;7.06;58.11
70009;BME280;59542;37.950;-122.338;2022-11-20T09:49:00;102190.28;;;6.87;58.73
70009;BME280;59542;37.950;-122.338;2022-11-20T09:51:36;102188.44;;;6.88;59.13
70009;BME280;59542;37.950;-122.338;2022-11-20T09:54:17;102187.00;;;6.94;58.67
70009;BME280;59542;37.950;-122.338;2022-11-20T09:56:47;102191.44;;;6.85;58.48
70009;BME280;59542;37.950;-122.338;2022-11-20T09:59:43;102193.69;;;6.80;58.68
70009;BME280;59542;37.950;-122.338;2022-11-20T10:02:30;102195.16;;;6.92;58.68
70009;BME280;59542;37.950;-122.338;2022-11-20T10:10:43;102189.47;;;7.05;58.59
70009;BME280;59542;37.950;-122.338;2022-11-20T10:19:02;102197.38;;;6.69;59.73
70009;BME280;59542;37.950;-122.338;2022-11-20T10:22:01;102192.69;;;6.81;60.00
70009;BME280;59542;37.950;-122.338;2022-11-20T10:30:14;102201.09;;;6.49;61.13
70009;BME280;59542;37.950;-122.338;2022-11-20T10:32:47;102194.41;;;6.45;61.10
70009;BME280;59542;37.950;-122.338;2022-11-20T10:35:34;102199.59;;;6.46;61.13
70009;BME280;59542;37.950;-122.338;2022-11-20T10:38:23;102199.38;;;6.20;62.06
70009;BME280;59542;37.950;-122.338;2022-11-20T10:40:58;102204.13;;;6.26;61.71
70009;BME280;59542;37.950;-122.338;2022-11-20T10:43:46;102198.53;;;6.29;61.55
70009;BME280;59542;37.950;-122.338;2022-11-20T10:46:15;102190.88;;;6.54;60.81
70009;BME280;59542;37.950;-122.338;2022-11-20T10:48:44;102193.41;;;6.55;60.82
70009;BME280;59542;37.950;-122.338;2022-11-20T10:59:23;102199.81;;;6.16;63.34
70009;BME280;59542;37.950;-122.338;2022-11-20T11:01:52;102207.84;;;5.96;63.85
70009;BME280;59542;37.950;-122.338;2022-11-20T11:04:39;102203.06;;;5.80;64.25
70009;BME280;59542;37.950;-122.338;2022-11-20T11:07:35;102196.22;;;5.97;63.58
70009;BME280;59542;37.950;-122.338;2022-11-20T11:10:16;102197.63;;;6.01;63.16
70009;BME280;59542;37.950;-122.338;2022-11-20T11:12:46;102187.97;;;6.00;63.23
70009;BME280;59542;37.950;-122.338;2022-11-20T11:15:37;102176.34;;;6.01;62.73
70009;BME280;59542;37.950;-122.338;2022-11-20T11:18:04;102186.09;;;6.20;62.22
70009;BME280;59542;37.950;-122.338;2022-11-20T11:20:31;102191.41;;;6.20;62.57
70009;BME280;59542;37.950;-122.338;2022-11-20T11:22:58;102189.16;;;6.16;62.71
70009;BME280;59542;37.950;-122.338;2022-11-20T11:25:32;102196.22;;;6.07;63.09
70009;BME280;59542;37.950;-122.338;2022-11-20T11:28:04;102202.94;;;6.01;63.06
70009;BME280;59542;37.950;-122.338;2022-11-20T11:30:42;102195.78;;;6.12;62.96
70009;BME280;59542;37.950;-122.338;2022-11-20T11:33:19;102195.91;;;6.10;63.31
70009;BME280;59542;37.950;-122.338;2022-11-20T11:35:49;102199.69;;;6.07;63.35
70009;BME280;59542;37.950;-122.338;2022-11-20T11:38:41;102201.66;;;6.05;63.61
70009;BME280;59542;37.950;-122.338;2022-11-20T11:41:19;102201.78;;;6.04;63.22
70009;BME280;59542;37.950;-122.338;2022-11-20T11:44:00;102199.19;;;5.94;63.96
70009;BME280;59542;37.950;-122.338;2022-11-20T11:46:54;102198.19;;;5.95;63.90
70009;BME280;59542;37.950;-122.338;2022-11-20T11:49:21;102195.50;;;6.05;63.59
70009;BME280;59542;37.950;-122.338;2022-11-20T11:52:02;102199.00;;;6.05;63.97
70009;BME280;59542;37.950;-122.338;2022-11-20T11:54:37;102198.28;;;6.03;63.85
70009;BME280;59542;37.950;-122.338;2022-11-20T11:59:57;102203.50;;;5.95;64.29
70009;BME280;59542;37.950;-122.338;2022-11-20T12:02:52;102205.19;;;5.96;64.19
70009;BME280;59542;37.950;-122.338;2022-11-20T12:05:30;102197.03;;;5.88;64.48
70009;BME280;59542;37.950;-122.338;2022-11-20T12:13:23;102201.53;;;5.97;64.47
70009;BME280;59542;37.950;-122.338;2022-11-20T12:15:51;102199.97;;;5.85;64.96
70009;BME280;59542;37.950;-122.338;2022-11-20T12:18:21;102197.91;;;5.79;65.16
70009;BME280;59542;37.950;-122.338;2022-11-20T12:21:18;102203.34;;;5.77;65.20
70009;BME280;59542;37.950;-122.338;2022-11-20T12:32:04;102208.38;;;5.90;64.63
70009;BME280;59542;37.950;-122.338;2022-11-20T12:37:36;102217.06;;;5.92;64.65
70009;BME280;59542;37.950;-122.338;2022-11-20T12:43:12;102229.63;;;6.09;64.31
70009;BME280;59542;37.950;-122.338;2022-11-20T12:48:54;102232.31;;;6.00;64.57
70009;BME280;59542;37.950;-122.338;2022-11-20T12:51:51;102230.91;;;5.96;64.67
70009;BME280;59542;37.950;-122.338;2022-11-20T12:57:45;102230.47;;;5.91;64.82
70009;BME280;59542;37.950;-122.338;2022-11-20T13:00:20;102231.59;;;6.07;64.42
70009;BME280;59542;37.950;-122.338;2022-11-20T13:06:12;102226.00;;;6.01;64.51
70009;BME280;59542;37.950;-122.338;2022-11-20T13:08:41;102227.53;;;6.03;64.46
70009;BME280;59542;37.950;-122.338;2022-11-20T13:13:52;102230.91;;;5.96;64.88
70009;BME280;59542;37.950;-122.338;2022-11-20T13:19:25;102241.13;;;6.00;64.42
70009;BME280;59542;37.950;-122.338;2022-11-20T13:21:52;102245.47;;;5.92;64.70
70009;BME280;59542;37.950;-122.338;2022-11-20T13:26:45;102255.63;;;5.77;64.71
70009;BME280;59542;37.950;-122.338;2022-11-20T13:29:19;102259.84;;;5.79;64.58
70009;BME280;59542;37.950;-122.338;2022-11-20T13:31:47;102262.66;;;5.97;63.92
70009;BME280;59542;37.950;-122.338;2022-11-20T13:34:24;102258.59;;;6.03;63.65
70009;BME280;59542;37.950;-122.338;2022-11-20T13:36:53;102262.25;;;5.92;63.91
70009;BME280;59542;37.950;-122.338;2022-11-20T13:39:32;102268.53;;;5.91;64.06
70009;BME280;59542;37.950;-122.338;2022-11-20T13:44:44;102263.75;;;6.04;63.61
70009;BME280;59542;37.950;-122.338;2022-11-20T13:47:24;102266.56;;;5.93;63.52
70009;BME280;59542;37.950;-122.338;2022-11-20T13:49:52;102261.25;;;6.03;63.27
70009;BME280;59542;37.950;-122.338;2022-11-20T13:55:23;102260.41;;;5.93;63.29